createdAt,value
2022-11-16T00:04:14.218Z,12.21
2022-11-16T00:09:38.734Z,12.09
2022-11-16T00:15:01.822Z,12.15
2022-11-16T00:20:24.906Z,12.02
2022-11-16T00:25:49.571Z,12.03
2022-11-16T00:31:12.641Z,12.05
2022-11-16T00:36:35.819Z,12.08
2022-11-16T00:42:00.266Z,12.10
2022-11-16T00:47:23.922Z,12.08
2022-11-16T00:52:47.006Z,12.20
2022-11-16T00:58:11.782Z,12.06
2022-11-16T01:03:37.870Z,12.20
2022-11-16T01:09:01.322Z,12.07
2022-11-16T01:14:25.725Z,12.09
2022-11-16T01:19:48.867Z,12.27
2022-11-16T01:25:13.270Z,12.21
2022-11-16T01:30:37.887Z,12.17
2022-11-16T01:36:14.259Z,12.23
2022-11-16T01:41:37.692Z,12.24
2022-11-16T01:47:08.490Z,12.31
2022-11-16T01:52:33.164Z,12.32
2022-11-16T01:57:57.289Z,12.44
2022-11-16T02:03:22.367Z,12.41
2022-11-16T02:09:17.090Z,12.52
2022-11-16T02:15:04.088Z,12.60
2022-11-16T02:20:45.320Z,12.62
2022-11-16T02:26:21.395Z,12.53
2022-11-16T02:31:51.977Z,12.40
2022-11-16T02:37:17.552Z,12.38
2022-11-16T02:42:43.433Z,12.36
2022-11-16T02:48:12.349Z,12.41
2022-11-16T02:53:40.713Z,12.24
2022-11-16T02:59:06.050Z,12.58
2022-11-16T03:04:35.170Z,12.43
2022-11-16T03:09:59.234Z,12.24
2022-11-16T03:15:22.429Z,12.37
2022-11-16T03:20:48.091Z,12.30
2022-11-16T03:26:12.479Z,12.17
2022-11-16T03:31:39.269Z,12.25
2022-11-16T03:37:05.249Z,12.28
2022-11-16T03:42:32.885Z,12.27
2022-11-16T03:47:56.076Z,12.25
2022-11-16T03:53:20.946Z,12.25
2022-11-16T03:58:44.201Z,12.24
2022-11-16T04:04:07.650Z,12.21
2022-11-16T04:09:49.800Z,12.11
2022-11-16T04:15:31.062Z,12.12
2022-11-16T04:21:15.115Z,12.05
2022-11-16T04:26:57.792Z,12.08
2022-11-16T04:32:38.709Z,12.06
2022-11-16T04:38:02.019Z,12.14
2022-11-16T04:43:30.454Z,12.06
2022-11-16T04:48:53.651Z,11.99
2022-11-16T04:54:16.845Z,12.07
2022-11-16T04:59:41.467Z,12.13
2022-11-16T05:05:05.287Z,12.15
2022-11-16T05:10:29.527Z,12.11
2022-11-16T05:15:54.057Z,12.06
2022-11-16T05:21:17.490Z,12.08
2022-11-16T05:26:41.155Z,11.86
2022-11-16T05:32:06.714Z,11.89
2022-11-16T05:37:30.488Z,11.90
2022-11-16T05:42:54.493Z,11.83
2022-11-16T05:48:20.041Z,11.76
2022-11-16T05:53:44.646Z,11.55
2022-11-16T05:59:16.416Z,11.61
2022-11-16T06:04:42.174Z,11.46
2022-11-16T06:10:06.131Z,11.46
2022-11-16T06:15:29.924Z,11.58
2022-11-16T06:20:55.508Z,11.38
2022-11-16T06:26:18.871Z,11.36
2022-11-16T06:31:43.007Z,11.49
2022-11-16T06:37:08.223Z,11.55
2022-11-16T06:42:32.111Z,11.45
2022-11-16T06:47:57.150Z,11.42
2022-11-16T06:53:28.727Z,11.51
2022-11-16T06:58:54.145Z,11.47
2022-11-16T07:04:19.887Z,11.45
2022-11-16T07:09:50.742Z,11.34
2022-11-16T07:15:15.312Z,11.15
2022-11-16T07:20:41.981Z,11.21
2022-11-16T07:26:08.388Z,11.20
2022-11-16T07:31:38.895Z,11.10
2022-11-16T07:37:22.282Z,11.15
2022-11-16T07:42:46.888Z,11.04
2022-11-16T07:48:21.349Z,10.99
2022-11-16T07:54:03.207Z,10.83
2022-11-16T07:59:28.499Z,10.77
2022-11-16T08:04:52.135Z,10.16
2022-11-16T08:10:21.642Z,10.29
2022-11-16T08:15:46.270Z,10.29
2022-11-16T08:21:10.546Z,10.18
2022-11-16T08:26:35.219Z,10.33
2022-11-16T08:32:05.529Z,10.33
2022-11-16T08:37:31.992Z,10.19
2022-11-16T08:42:57.102Z,10.21
2022-11-16T08:48:21.878Z,10.30
2022-11-16T08:53:45.331Z,10.33
2022-11-16T08:59:08.866Z,10.38
2022-11-16T09:04:37.554Z,10.48
2022-11-16T09:10:00.832Z,10.47
2022-11-16T09:15:24.021Z,10.52
2022-11-16T09:20:48.649Z,10.66
2022-11-16T09:26:11.775Z,10.80
2022-11-16T09:31:37.214Z,10.84
2022-11-16T09:37:01.832Z,10.99
2022-11-16T09:42:34.653Z,10.92
2022-11-16T09:48:02.263Z,10.91
2022-11-16T09:53:33.670Z,10.85
2022-11-16T09:59:01.380Z,11.14
2022-11-16T10:04:28.056Z,10.91
2022-11-16T10:10:15.601Z,11.11
2022-11-16T10:15:51.393Z,11.05
2022-11-16T10:21:25.344Z,11.15
2022-11-16T10:26:55.238Z,11.09
2022-11-16T10:32:26.031Z,11.30
2022-11-16T10:37:50.925Z,11.46
2022-11-16T10:43:17.725Z,11.60
2022-11-16T10:48:44.488Z,11.57
2022-11-16T10:54:13.289Z,11.77
2022-11-16T10:59:42.954Z,11.52
2022-11-16T11:05:11.918Z,11.74
2022-11-16T11:10:37.340Z,11.78
2022-11-16T11:16:17.017Z,11.88
2022-11-16T11:21:40.267Z,11.72
2022-11-16T11:27:03.398Z,11.86
2022-11-16T11:32:32.885Z,11.80
2022-11-16T11:37:57.899Z,11.83
2022-11-16T11:43:23.754Z,11.82
2022-11-16T11:48:52.376Z,11.97
2022-11-16T11:54:19.407Z,12.18
2022-11-16T11:59:42.874Z,12.10
2022-11-16T12:05:28.398Z,12.18
2022-11-16T12:10:53.923Z,12.75
2022-11-16T12:16:20.545Z,13.16
2022-11-16T12:21:53.167Z,12.80
2022-11-16T12:27:26.978Z,12.69
2022-11-16T12:32:58.428Z,12.23
2022-11-16T12:38:31.441Z,12.18
2022-11-16T12:43:57.456Z,12.25
2022-11-16T12:49:52.371Z,12.39
2022-11-16T12:55:27.202Z,12.55
2022-11-16T13:00:56.351Z,13.14
2022-11-16T13:06:21.371Z,13.85
2022-11-16T13:11:49.119Z,13.49
2022-11-16T13:17:20.461Z,13.10
2022-11-16T13:22:50.856Z,13.04
2022-11-16T13:28:23.179Z,12.78
2022-11-16T13:33:51.327Z,12.84
2022-11-16T13:39:21.851Z,12.55
2022-11-16T13:44:51.407Z,12.17
2022-11-16T13:50:19.015Z,11.84
2022-11-16T13:55:46.234Z,11.99
2022-11-16T14:01:15.350Z,12.16
2022-11-16T14:07:00.260Z,12.32
2022-11-16T14:12:57.171Z,12.22
2022-11-16T14:18:38.111Z,12.13
2022-11-16T14:24:23.741Z,11.66
2022-11-16T14:29:54.620Z,11.74
2022-11-16T14:35:29.530Z,11.68
2022-11-16T14:40:59.221Z,11.63
2022-11-16T14:46:26.051Z,11.55
2022-11-16T14:51:52.871Z,11.54
2022-11-16T14:57:20.064Z,11.65
2022-11-16T15:02:46.935Z,11.58
2022-11-16T15:08:18.682Z,11.62
2022-11-16T15:13:46.536Z,11.63
2022-11-16T15:19:13.526Z,11.48
2022-11-16T15:24:38.073Z,11.22
2022-11-16T15:30:02.790Z,11.03
2022-11-16T15:35:29.953Z,11.01
2022-11-16T15:40:55.721Z,10.98
2022-11-16T15:46:18.998Z,10.93
2022-11-16T15:51:44.062Z,10.84
2022-11-16T15:57:10.762Z,10.88
2022-11-16T16:02:33.940Z,10.77
2022-11-16T16:07:59.489Z,10.68
2022-11-16T16:13:28.535Z,10.67
2022-11-16T16:18:52.297Z,10.64
2022-11-16T16:24:41.211Z,10.42
2022-11-16T16:30:07.314Z,10.49
2022-11-16T16:35:30.404Z,10.36
2022-11-16T16:40:53.492Z,10.26
2022-11-16T16:46:18.043Z,10.32
2022-11-16T16:51:41.183Z,10.32
2022-11-16T16:57:04.488Z,10.22
2022-11-16T17:02:29.013Z,10.18
2022-11-16T17:07:52.180Z,10.22
2022-11-16T17:13:15.298Z,10.15
2022-11-16T17:18:39.862Z,10.01
2022-11-16T17:24:02.927Z,10.31
2022-11-16T17:29:26.179Z,10.17
2022-11-16T17:34:51.766Z,10.17
2022-11-16T17:40:16.205Z,10.28
2022-11-16T17:45:39.922Z,10.20
2022-11-16T17:51:05.040Z,10.16
2022-11-16T17:56:29.261Z,10.13
2022-11-16T18:01:52.328Z,10.02
2022-11-16T18:07:17.287Z,10.06
2022-11-16T18:12:40.595Z,9.75
2022-11-16T18:18:04.002Z,9.91
2022-11-16T18:23:28.732Z,9.89
2022-11-16T18:28:52.923Z,9.85
2022-11-16T18:34:16.734Z,9.91
2022-11-16T18:39:41.138Z,9.92
2022-11-16T18:45:04.564Z,9.95
2022-11-16T18:50:27.898Z,9.90
2022-11-16T18:55:57.614Z,9.92
2022-11-16T19:01:22.199Z,9.92
2022-11-16T19:06:45.551Z,9.87
2022-11-16T19:12:10.110Z,9.88
2022-11-16T19:17:33.242Z,9.93
2022-11-16T19:22:56.419Z,9.87
2022-11-16T19:28:20.934Z,9.98
2022-11-16T19:33:44.423Z,10.05
2022-11-16T19:39:07.725Z,10.02
2022-11-16T19:44:32.411Z,9.96
2022-11-16T19:49:55.635Z,9.99
2022-11-16T19:55:18.849Z,9.96
2022-11-16T20:00:43.387Z,9.98
2022-11-16T20:06:08.228Z,10.00
2022-11-16T20:11:33.678Z,10.15
2022-11-16T20:16:58.931Z,10.23
2022-11-16T20:22:22.029Z,10.26
2022-11-16T20:27:45.152Z,10.41
2022-11-16T20:33:09.633Z,10.40
2022-11-16T20:38:33.843Z,10.46
2022-11-16T20:43:58.083Z,10.46
2022-11-16T20:49:22.594Z,10.46
2022-11-16T20:54:45.687Z,10.44
2022-11-16T21:00:09.832Z,10.56
2022-11-16T21:05:34.309Z,10.49
2022-11-16T21:10:58.312Z,10.46
2022-11-16T21:16:21.663Z,10.56
2022-11-16T21:21:46.115Z,10.53
2022-11-16T21:27:09.331Z,10.40
2022-11-16T21:32:32.519Z,10.50
2022-11-16T21:37:57.378Z,10.50
2022-11-16T21:43:20.605Z,10.48
2022-11-16T21:48:43.952Z,10.53
2022-11-16T21:54:08.453Z,10.52
2022-11-16T21:59:31.563Z,10.53
2022-11-16T22:05:12.354Z,10.52
2022-11-16T22:10:36.900Z,10.49
2022-11-16T22:16:00.963Z,10.46
2022-11-16T22:21:24.067Z,10.42
2022-11-16T22:26:48.979Z,10.44
2022-11-16T22:32:12.093Z,10.42
2022-11-16T22:37:35.154Z,10.44
2022-11-16T22:43:00.015Z,10.45
2022-11-16T22:48:23.072Z,10.44
2022-11-16T22:53:46.238Z,10.40
2022-11-16T22:59:10.909Z,10.46
2022-11-16T23:04:33.996Z,10.44
2022-11-16T23:09:57.098Z,10.43
2022-11-16T23:15:39.397Z,10.45
2022-11-16T23:21:20.279Z,10.44
2022-11-16T23:27:00.965Z,10.45
2022-11-16T23:32:25.469Z,10.45
2022-11-16T23:37:55.821Z,10.43
2022-11-16T23:43:36.712Z,10.28
2022-11-16T23:49:02.120Z,10.12
2022-11-16T23:54:25.372Z,10.00
2022-11-16T23:59:48.506Z,9.87
